Terminal Aerodrome Forecast
Issued by NWS Cleveland, OH

Home | Current Version | Previous Version | Graphics & Text | Print | Product List | Glossary On
Versions: 1 2 3 4 5 6 7 8 9 10 11 12 13 14 15 16 17 18 19 20
000
FTUS41 KCLE 221100
TAFERI
TAF
KERI 221130Z 2212/2312 23008KT 3SM -RA SCT025 OVC040
     FM221300 25011KT 5SM BR BKN010 OVC025
     FM221700 29014G20KT P6SM BKN015 OVC025
     FM222100 29016G26KT P6SM VCSH BKN025
     FM230200 30014G20KT 6SM -SHRA OVC025=

USA.gov is the U.S. government's official web portal to all federal, state and local government web resources and services.